Pagrindinis puslapis
METAR-TAF:

METAR-TAF

Oro uostai :

Kampo Grandė, Pietų Mato Grosas, Brazilija

platuma: 20-28S, ilguma: 054-40W, Aukštis: 567 m

Dabartinis oras

Ataskaita buvo paskelbta 55 minutes, ne 21:00 UTC
Vėjas 8 kt iš Pietų, svyruoja nuo Pietryčių ir Pietų/Pietvakarių
Temperatūra 30°C
Drėgmė 49%
Slėgis 1014 hPa
Matomumas 10 km arba daugiau
nėra debesų žemiau 1500 m ir nėra kamuolinių lietaus debesų

METAR: SBCG 212100Z 17008KT 140V200 CAVOK 30/18 Q1014

Laikas: 17:55 (21:55 UTC)

Prognozė

Ataskaita buvo paskelbta 6 valandos ir 25 minutes, ne 15:30 UTC
Prognozė galioja nuo 21 metu 18 UTC su 22 metu 18 UTC
Vėjas 8 kt iš Pietryčių
Matomumas 10 km arba daugiau
Mažai debesys ne aukštis 4500 ft
Tapsmas
nuo 21 metu 23 UTC su 22 metu 01 UTC
Matomumas 10 km arba daugiau
nėra debesų žemiau 1500 m ir nėra kamuolinių lietaus debesų

TAF: SBCG 211530Z 2118/2218 14008KT 9999 FEW045 TN22/2208Z TX33/2218Z BECMG 2123/2201 CAVOK RMK PER

Orai ataskaitas ir orų prognozės (METAR, TAF).

turimą stotys yra geltonos ir raudonos taškus žemėlapyje.

Perkelti pele per norėdami pamatyti stoties vardą.

Tada spustelėkite, norėdami matyti oro stebėjimo ir prognozės.

Norėdami pakeisti žemėlapį: spustelėkite ant žalios mygtukų su juodo kryžiaus žemyn,; žalią mygtuką su brūkšneliu, jei norite nutolinti; arba žalių rodyklių gretimoms žemėlapius.


METAR-TAF: